Cabot, Arkansas
Current Conditions -  °F | °C
As of 5:58 AM on Monday 20 Oct 2014 (Local Time) from KLRF Reporting Station
Overcast Overcast  
Wind Chill: 48°   Ceiling: 16000
Heat Index: 48°   Visibility: 10mi
Dew Point: 46°   Wind: 0mph
Humidity: 93%   Direction: NA
Pressure: 30.08"   Gusts: NA
Location:  34.97°N, 92.02°W
Report Text: KLRF 201058Z AUTO 00000KT 10SM OVC160 09/08 A3008 RMK AO2 SLP188 T00900079
Loading
Personal Weather Stations






























Interactive Weather Map
Tropical Storm Tracking
New forecast layout! Learn more

10-Day Weather Forecast

Advertisements
Track Severe Weather on mobile